createdAt,value
2023-05-15T00:00:10.756Z,12.09
2023-05-15T00:05:18.296Z,11.79
2023-05-15T00:10:17.329Z,11.50
2023-05-15T00:15:16.131Z,11.55
2023-05-15T00:20:15.104Z,11.63
2023-05-15T00:25:13.832Z,11.61
2023-05-15T00:30:14.155Z,11.42
2023-05-15T00:35:13.136Z,11.56
2023-05-15T00:40:15.264Z,11.20
2023-05-15T00:45:15.156Z,11.05
2023-05-15T00:50:15.025Z,10.98
2023-05-15T00:55:16.445Z,11.17
2023-05-15T01:00:18.389Z,11.15
2023-05-15T01:05:17.268Z,11.18
2023-05-15T01:10:17.829Z,11.28
2023-05-15T01:15:16.704Z,11.27
2023-05-15T01:20:19.058Z,11.33
2023-05-15T01:25:33.029Z,11.62
2023-05-15T01:30:38.553Z,11.49
2023-05-15T01:35:56.150Z,11.35
2023-05-15T01:41:06.424Z,12.02
2023-05-15T01:46:07.245Z,11.79
2023-05-15T01:51:07.888Z,11.85
2023-05-15T01:56:10.002Z,11.35
2023-05-15T02:01:10.862Z,11.53
2023-05-15T02:06:10.132Z,11.77
2023-05-15T02:11:09.988Z,12.15
2023-05-15T02:16:09.879Z,12.05
2023-05-15T02:21:08.846Z,11.92
2023-05-15T02:26:45.342Z,11.72
2023-05-15T02:31:52.790Z,11.77
2023-05-15T02:36:53.235Z,11.96
2023-05-15T02:41:53.723Z,11.96
2023-05-15T02:46:54.243Z,12.11
2023-05-15T02:51:53.119Z,11.66
2023-05-15T02:56:51.941Z,12.07
2023-05-15T03:01:50.781Z,11.94
2023-05-15T03:06:49.732Z,11.76
2023-05-15T03:11:57.116Z,11.98
2023-05-15T03:16:57.474Z,12.00
2023-05-15T03:21:56.480Z,12.02
2023-05-15T03:26:55.429Z,11.82
2023-05-15T03:31:54.432Z,11.86
2023-05-15T03:36:53.554Z,12.11
2023-05-15T03:41:52.351Z,12.12
2023-05-15T03:46:54.534Z,12.46
2023-05-15T03:51:56.667Z,12.55
2023-05-15T03:56:55.912Z,12.41
2023-05-15T04:07:02.396Z,12.28
2023-05-15T04:12:01.152Z,12.36
2023-05-15T04:17:00.021Z,12.60
2023-05-15T04:21:58.779Z,12.77
2023-05-15T04:26:57.647Z,13.99
2023-05-15T04:31:56.708Z,15.41
2023-05-15T04:36:55.892Z,15.45
2023-05-15T04:41:54.784Z,15.47
2023-05-15T04:46:53.639Z,15.22
2023-05-15T04:51:52.477Z,15.29
2023-05-15T04:56:51.297Z,15.99
2023-05-15T05:01:51.201Z,16.21
2023-05-15T05:06:50.327Z,15.94
2023-05-15T05:11:49.108Z,14.59
2023-05-15T05:16:47.889Z,14.10
2023-05-15T05:21:47.847Z,13.81
2023-05-15T05:26:46.833Z,13.90
2023-05-15T05:31:49.855Z,13.19
2023-05-15T05:36:48.833Z,13.25
2023-05-15T05:41:47.867Z,13.68
2023-05-15T05:46:46.821Z,13.75
2023-05-15T05:51:47.117Z,13.57
2023-05-15T05:56:46.424Z,13.84
2023-05-15T06:01:45.291Z,13.69
2023-05-15T06:06:45.269Z,13.60
2023-05-15T06:11:44.235Z,13.40
2023-05-15T06:16:44.059Z,13.81
2023-05-15T06:21:43.193Z,14.10
2023-05-15T06:26:42.047Z,13.87
2023-05-15T06:31:41.064Z,14.19
2023-05-15T06:36:39.844Z,14.21
2023-05-15T06:41:38.796Z,14.46
2023-05-15T06:46:40.788Z,14.69
2023-05-15T06:51:39.550Z,14.71
2023-05-15T06:56:38.451Z,14.95
2023-05-15T07:01:38.381Z,15.05
2023-05-15T07:06:37.721Z,15.20
2023-05-15T07:11:39.057Z,15.58
2023-05-15T07:16:38.114Z,15.73
2023-05-15T07:21:37.417Z,15.89
2023-05-15T07:26:46.647Z,15.52
2023-05-15T07:31:55.998Z,15.87
2023-05-15T07:36:54.975Z,15.97
2023-05-15T07:41:59.198Z,15.89
2023-05-15T07:47:00.380Z,15.63
2023-05-15T07:51:59.367Z,15.98
2023-05-15T07:56:58.750Z,16.18
2023-05-15T08:01:57.696Z,16.29
2023-05-15T08:06:56.951Z,16.27
2023-05-15T08:11:56.226Z,16.41
2023-05-15T08:16:55.057Z,16.21
2023-05-15T08:21:53.921Z,16.41
2023-05-15T08:26:52.845Z,16.61
2023-05-15T08:31:52.150Z,16.64
2023-05-15T08:36:52.509Z,16.82
2023-05-15T08:41:58.347Z,16.78
2023-05-15T08:46:58.239Z,16.69
2023-05-15T08:51:57.485Z,16.53
2023-05-15T08:56:57.008Z,16.72
2023-05-15T09:01:57.103Z,16.96
2023-05-15T09:06:57.033Z,17.03
2023-05-15T09:11:55.972Z,16.96
2023-05-15T09:16:54.828Z,17.19
2023-05-15T09:21:53.763Z,17.52
2023-05-15T09:27:06.956Z,17.48
2023-05-15T09:32:10.814Z,17.52
2023-05-15T09:37:13.280Z,17.84
2023-05-15T09:42:14.916Z,18.17
2023-05-15T09:47:14.584Z,18.49
2023-05-15T09:52:16.214Z,17.84
2023-05-15T09:57:15.214Z,17.58
2023-05-15T10:02:32.773Z,17.96
2023-05-15T10:07:36.590Z,18.38
2023-05-15T10:12:36.735Z,18.42
2023-05-15T10:17:37.121Z,18.18
2023-05-15T10:22:42.170Z,18.34
2023-05-15T10:27:42.657Z,18.16
2023-05-15T10:32:43.368Z,18.65
2023-05-15T10:37:44.069Z,18.64
2023-05-15T10:42:45.940Z,18.64
2023-05-15T10:47:45.788Z,19.04
2023-05-15T10:52:44.832Z,19.23
2023-05-15T10:57:47.973Z,19.89
2023-05-15T11:02:46.730Z,19.99
2023-05-15T11:08:26.416Z,20.01
2023-05-15T11:13:25.348Z,19.79
2023-05-15T11:18:25.654Z,19.64
2023-05-15T11:23:25.649Z,19.36
2023-05-15T11:28:29.297Z,19.87
2023-05-15T11:33:31.617Z,20.16
2023-05-15T11:38:37.813Z,20.37
2023-05-15T11:43:36.652Z,20.69
2023-05-15T11:48:47.872Z,19.48
2023-05-15T11:53:47.696Z,18.66
2023-05-15T11:58:50.858Z,17.99
2023-05-15T12:03:51.362Z,17.46
2023-05-15T12:08:56.634Z,17.10
2023-05-15T12:13:55.517Z,16.63
2023-05-15T12:18:57.381Z,16.30
2023-05-15T12:24:07.022Z,16.07
2023-05-15T12:29:07.575Z,15.97
2023-05-15T12:34:08.013Z,15.99
2023-05-15T12:39:08.159Z,16.46
2023-05-15T12:44:06.979Z,16.85
2023-05-15T12:49:05.832Z,17.05
2023-05-15T12:54:04.763Z,17.21
2023-05-15T12:59:04.460Z,17.95
2023-05-15T13:04:03.902Z,18.79
2023-05-15T13:09:02.847Z,19.70
2023-05-15T13:14:08.387Z,20.51
2023-05-15T13:19:09.734Z,20.73
2023-05-15T13:24:12.757Z,20.68
2023-05-15T13:29:12.136Z,20.37
2023-05-15T13:34:10.960Z,19.84
2023-05-15T13:39:09.732Z,19.13
2023-05-15T13:44:08.523Z,18.75
2023-05-15T13:49:07.795Z,19.06
2023-05-15T13:54:06.585Z,19.27
2023-05-15T13:59:05.451Z,19.32
2023-05-15T14:04:04.507Z,19.88
2023-05-15T14:09:03.615Z,20.58
2023-05-15T14:14:02.460Z,20.06
2023-05-15T14:19:01.208Z,19.74
2023-05-15T14:24:00.235Z,20.20
2023-05-15T14:28:59.246Z,20.02
2023-05-15T14:33:58.119Z,19.75
2023-05-15T14:38:59.701Z,19.40
2023-05-15T14:43:59.194Z,19.87
2023-05-15T14:48:58.100Z,20.07
2023-05-15T14:53:57.207Z,19.73
2023-05-15T14:58:56.105Z,19.61
2023-05-15T15:03:55.100Z,19.41
2023-05-15T15:08:54.242Z,19.51
2023-05-15T15:13:53.004Z,20.12
2023-05-15T15:18:51.993Z,20.53
2023-05-15T15:23:51.151Z,20.67
2023-05-15T15:28:49.897Z,20.93
2023-05-15T15:33:48.746Z,20.80
2023-05-15T15:38:47.798Z,20.73
2023-05-15T15:43:46.606Z,20.35
2023-05-15T15:48:45.513Z,19.94
2023-05-15T15:53:44.548Z,19.53
2023-05-15T15:58:43.471Z,19.34
2023-05-15T16:03:42.868Z,18.52
2023-05-15T16:08:41.780Z,17.67
2023-05-15T16:13:41.246Z,17.35
2023-05-15T16:18:40.206Z,17.26
2023-05-15T16:23:43.123Z,16.92
2023-05-15T16:28:41.890Z,16.69
2023-05-15T16:33:40.920Z,15.99
2023-05-15T16:38:39.950Z,16.12
2023-05-15T16:43:38.876Z,15.81
2023-05-15T16:48:38.187Z,15.64
2023-05-15T16:53:37.018Z,15.66
2023-05-15T16:58:35.848Z,16.27
2023-05-15T17:03:34.759Z,15.92
2023-05-15T17:08:34.740Z,15.88
2023-05-15T17:13:33.534Z,15.96
2023-05-15T17:18:32.556Z,16.11
2023-05-15T17:23:31.529Z,15.74
2023-05-15T17:28:30.305Z,15.73
2023-05-15T17:33:29.141Z,15.55
2023-05-15T17:38:28.084Z,15.63
2023-05-15T17:43:26.858Z,15.81
2023-05-15T17:48:25.862Z,15.76
2023-05-15T17:53:24.933Z,15.91
2023-05-15T17:58:23.903Z,15.93
2023-05-15T18:03:22.825Z,15.92
2023-05-15T18:08:21.784Z,15.74
2023-05-15T18:13:20.793Z,15.50
2023-05-15T18:18:19.601Z,15.54
2023-05-15T18:23:19.975Z,15.65
2023-05-15T18:28:18.774Z,15.53
2023-05-15T18:33:17.696Z,15.78
2023-05-15T18:38:16.518Z,15.56
2023-05-15T18:43:15.451Z,15.34
2023-05-15T18:48:14.728Z,15.26
2023-05-15T18:53:13.477Z,15.29
2023-05-15T18:58:12.300Z,15.10
2023-05-15T19:03:11.285Z,14.56
2023-05-15T19:08:10.221Z,14.35
2023-05-15T19:13:08.997Z,14.44
2023-05-15T19:18:07.896Z,14.54
2023-05-15T19:23:08.773Z,14.39
2023-05-15T19:28:08.541Z,14.38
2023-05-15T19:33:07.477Z,14.37
2023-05-15T19:38:06.532Z,14.56
2023-05-15T19:43:05.406Z,14.42
2023-05-15T19:48:04.586Z,14.30
2023-05-15T19:53:03.426Z,14.07
2023-05-15T19:58:02.493Z,13.93
2023-05-15T20:03:01.464Z,13.92
2023-05-15T20:08:00.371Z,13.70
2023-05-15T20:12:59.530Z,13.20
2023-05-15T20:17:58.473Z,14.92
2023-05-15T20:22:57.410Z,14.76
2023-05-15T20:27:58.548Z,14.36
2023-05-15T20:32:57.622Z,13.98
2023-05-15T20:37:57.501Z,13.87
2023-05-15T20:42:57.126Z,13.70
2023-05-15T20:47:55.908Z,13.53
2023-05-15T20:52:54.858Z,13.76
2023-05-15T20:57:53.752Z,13.15
2023-05-15T21:02:52.773Z,13.40
2023-05-15T21:07:51.722Z,13.53
2023-05-15T21:12:51.021Z,13.70
2023-05-15T21:17:49.829Z,14.42
2023-05-15T21:22:48.724Z,14.51
2023-05-15T21:27:47.530Z,14.67
2023-05-15T21:32:46.328Z,14.84
2023-05-15T21:37:45.087Z,14.93
2023-05-15T21:42:44.122Z,14.88
2023-05-15T21:47:42.925Z,14.89
2023-05-15T21:52:42.011Z,14.67
2023-05-15T21:57:40.825Z,14.84
2023-05-15T22:02:39.762Z,14.77
2023-05-15T22:07:38.711Z,14.79
2023-05-15T22:12:37.642Z,14.86
2023-05-15T22:17:37.112Z,14.68
2023-05-15T22:22:36.039Z,14.70
2023-05-15T22:27:35.294Z,14.85
2023-05-15T22:32:34.504Z,14.81
2023-05-15T22:37:33.340Z,14.79
2023-05-15T22:42:32.546Z,14.66
2023-05-15T22:47:31.524Z,14.65
2023-05-15T22:52:30.325Z,14.47
2023-05-15T22:57:29.136Z,14.46
2023-05-15T23:02:27.949Z,14.36
2023-05-15T23:07:26.741Z,14.34
2023-05-15T23:12:25.790Z,14.26
2023-05-15T23:17:26.398Z,14.10
2023-05-15T23:22:25.631Z,14.14
2023-05-15T23:27:24.439Z,14.15
2023-05-15T23:32:23.248Z,14.09
2023-05-15T23:37:22.084Z,14.01
2023-05-15T23:42:22.782Z,13.99
2023-05-15T23:47:21.576Z,13.83
2023-05-15T23:52:20.430Z,13.96
2023-05-15T23:57:19.577Z,13.88
